Time;durP1;ratioP1;P1;durP2;ratioP2;P2;SDS_P1;SDS_P2;PMS_P1;PMS_P2;Temp;Humidity;BMP_temperature;BMP_pressure;BME280_temperature;BME280_humidity;BME280_pressure;Samples;Min_cycle;Max_cycle;Signal;HPM_P1;HPM_P2
2021/01/18 00:01:53;;;;;;;33.70;8.38;;;4.60;99.90;;;;;;5092634;28;20035;-71
2021/01/18 00:04:19;;;;;;;44.95;9.35;;;4.50;99.90;;;;;;5092326;28;20416;-73
2021/01/18 00:06:44;;;;;;;36.60;8.63;;;4.50;99.90;;;;;;5093855;28;20028;-73
2021/01/18 00:09:10;;;;;;;39.13;10.27;;;4.60;99.90;;;;;;5093869;28;20095;-73
2021/01/18 00:11:35;;;;;;;36.20;10.18;;;4.50;99.90;;;;;;5092687;28;20047;-73
2021/01/18 00:14:01;;;;;;;45.25;10.27;;;4.50;99.90;;;;;;5093819;28;20071;-72
2021/01/18 00:16:26;;;;;;;47.17;9.07;;;4.50;99.90;;;;;;5094076;28;20457;-72
2021/01/18 00:18:52;;;;;;;35.45;8.70;;;4.50;99.90;;;;;;5093765;28;20036;-73
2021/01/18 00:21:17;;;;;;;31.20;9.65;;;4.50;99.90;;;;;;5094065;28;20031;-73
2021/01/18 00:23:43;;;;;;;34.38;8.35;;;4.50;99.90;;;;;;5093980;28;20035;-73
2021/01/18 00:26:09;;;;;;;40.47;10.05;;;4.50;99.90;;;;;;5092208;28;20024;-73
2021/01/18 00:28:36;;;;;;;39.88;9.57;;;4.50;99.90;;;;;;5093716;28;20077;-74
2021/01/18 00:31:03;;;;;;;41.28;9.95;;;4.50;99.90;;;;;;5093649;28;20099;-73
2021/01/18 00:33:28;;;;;;;30.20;9.77;;;4.50;99.90;;;;;;5093668;28;20049;-73
2021/01/18 00:35:54;;;;;;;37.25;10.35;;;4.50;99.90;;;;;;5093911;28;20152;-72
2021/01/18 00:38:20;;;;;;;41.47;11.45;;;4.50;99.90;;;;;;5093843;28;20081;-73
2021/01/18 00:40:45;;;;;;;49.22;11.27;;;4.40;99.90;;;;;;5093856;28;20032;-73
2021/01/18 00:43:11;;;;;;;52.00;13.68;;;4.40;99.90;;;;;;5093267;28;20148;-73
2021/01/18 00:45:36;;;;;;;46.03;11.35;;;4.30;99.90;;;;;;5093420;28;20107;-73
2021/01/18 00:48:02;;;;;;;53.22;13.30;;;4.30;99.90;;;;;;5091919;28;20489;-73
2021/01/18 00:50:30;;;;;;;40.17;12.63;;;4.30;99.90;;;;;;5093750;28;20099;-73
2021/01/18 00:52:57;;;;;;;50.95;13.25;;;4.40;99.90;;;;;;5093490;28;20158;-73
2021/01/18 00:55:24;;;;;;;47.13;14.45;;;4.40;99.90;;;;;;5093438;28;20028;-73
2021/01/18 00:57:50;;;;;;;58.13;15.30;;;4.40;99.90;;;;;;5093697;28;20020;-73
2021/01/18 01:00:19;;;;;;;44.67;14.52;;;4.40;99.90;;;;;;5093685;28;20027;-73
2021/01/18 01:02:47;;;;;;;49.45;14.95;;;4.40;99.90;;;;;;5093119;28;20526;-73
2021/01/18 01:05:15;;;;;;;41.08;15.48;;;4.30;99.90;;;;;;5093010;28;20576;-73
2021/01/18 01:07:43;;;;;;;43.50;15.77;;;4.30;99.90;;;;;;5093351;28;20457;-73
2021/01/18 01:10:09;;;;;;;55.63;16.77;;;4.40;99.90;;;;;;5093361;28;20408;-73
2021/01/18 01:12:35;;;;;;;40.15;16.73;;;4.40;99.90;;;;;;5095146;28;20012;-73
2021/01/18 01:15:01;;;;;;;49.05;15.98;;;4.30;99.90;;;;;;5097254;28;20070;-74
2021/01/18 01:17:27;;;;;;;49.28;17.27;;;4.30;99.90;;;;;;5097214;28;20028;-73
2021/01/18 01:19:52;;;;;;;46.72;18.23;;;4.30;99.90;;;;;;5097134;28;20465;-74
2021/01/18 01:22:18;;;;;;;56.63;18.35;;;4.30;99.90;;;;;;5095699;28;20047;-73
2021/01/18 01:24:43;;;;;;;56.10;22.63;;;4.30;99.90;;;;;;5095809;28;20020;-73
2021/01/18 01:27:09;;;;;;;73.70;23.23;;;4.20;99.90;;;;;;5096987;28;20020;-73
2021/01/18 01:29:34;;;;;;;61.72;24.50;;;4.30;99.90;;;;;;5096955;28;20028;-73
2021/01/18 01:32:00;;;;;;;83.00;25.52;;;4.30;99.90;;;;;;5096862;28;20028;-73
2021/01/18 01:34:26;;;;;;;74.40;26.02;;;4.20;99.90;;;;;;5096569;28;20028;-73
2021/01/18 01:36:51;;;;;;;86.07;27.25;;;4.30;99.90;;;;;;5096796;28;20081;-73
2021/01/18 01:39:17;;;;;;;72.50;26.98;;;4.30;99.90;;;;;;5096226;28;20021;-73
2021/01/18 01:41:42;;;;;;;67.35;26.98;;;4.30;99.90;;;;;;5096710;28;20108;-73
2021/01/18 01:44:08;;;;;;;79.75;29.02;;;4.30;99.90;;;;;;5096333;28;20028;-73
2021/01/18 01:46:34;;;;;;;81.28;27.48;;;4.30;99.90;;;;;;5096169;28;20453;-73
2021/01/18 01:48:59;;;;;;;71.88;28.08;;;4.30;99.90;;;;;;5096505;28;20024;-73
2021/01/18 01:51:27;;;;;;;70.60;25.48;;;4.30;99.90;;;;;;5096496;28;20123;-73
2021/01/18 01:53:53;;;;;;;70.70;25.05;;;4.30;99.90;;;;;;5096449;28;20119;-73
2021/01/18 01:56:20;;;;;;;69.05;26.10;;;4.30;99.90;;;;;;5096357;28;20028;-73
2021/01/18 01:58:46;;;;;;;52.67;22.55;;;4.30;99.90;;;;;;5096326;28;20031;-73
2021/01/18 02:01:13;;;;;;;67.47;22.10;;;4.30;99.90;;;;;;5096277;28;20073;-73
2021/01/18 02:03:41;;;;;;;58.28;22.95;;;4.30;99.90;;;;;;5095936;28;20032;-73
2021/01/18 02:06:08;;;;;;;63.05;23.63;;;4.30;99.90;;;;;;5096135;28;20127;-73
2021/01/18 02:08:34;;;;;;;57.95;23.30;;;4.30;99.90;;;;;;5095871;28;20023;-73
2021/01/18 02:11:00;;;;;;;56.63;20.80;;;4.30;99.90;;;;;;5096122;28;20016;-73
2021/01/18 02:13:57;;;;;;;50.25;22.10;;;4.30;99.90;;;;;;5094593;28;20020;-73
2021/01/18 02:16:32;;;;;;;53.78;21.70;;;4.30;99.90;;;;;;5095991;28;20063;-73
2021/01/18 02:19:26;;;;;;;45.63;20.23;;;4.30;99.90;;;;;;5095933;28;20036;-73
2021/01/18 02:22:31;;;;;;;49.88;18.50;;;4.30;99.90;;;;;;5095798;28;20020;-73
2021/01/18 02:25:15;;;;;;;44.47;18.42;;;4.30;99.90;;;;;;5095115;28;20052;-73
2021/01/18 02:28:05;;;;;;;40.85;16.85;;;4.20;99.90;;;;;;5095736;28;20520;-73
2021/01/18 02:30:58;;;;;;;47.42;15.75;;;4.20;99.90;;;;;;5094214;28;20411;-73
2021/01/18 02:33:42;;;;;;;36.72;14.95;;;4.30;99.90;;;;;;5095601;28;20051;-73
2021/01/18 02:36:30;;;;;;;33.88;13.73;;;4.30;99.90;;;;;;5094195;28;20032;-73
2021/01/18 02:39:29;;;;;;;33.88;13.90;;;4.20;99.90;;;;;;5094990;28;20020;-73
2021/01/18 02:42:02;;;;;;;30.90;13.48;;;4.20;99.90;;;;;;5094864;28;20465;-73
2021/01/18 02:44:29;;;;;;;36.15;13.07;;;4.20;99.90;;;;;;5093631;28;20114;-73
2021/01/18 02:46:56;;;;;;;33.20;14.18;;;4.30;99.90;;;;;;5095116;28;20427;-73
2021/01/18 02:49:22;;;;;;;40.05;14.75;;;4.20;99.90;;;;;;5095370;28;20031;-74
2021/01/18 02:51:56;;;;;;;40.03;16.05;;;4.20;99.90;;;;;;5093532;28;20020;-73
2021/01/18 02:54:21;;;;;;;46.03;17.95;;;4.20;99.90;;;;;;5094981;28;20024;-73
2021/01/18 02:56:52;;;;;;;56.55;19.88;;;4.30;99.90;;;;;;5094055;28;20020;-73
2021/01/18 02:59:18;;;;;;;44.85;20.08;;;4.30;99.90;;;;;;5095182;28;20012;-74
2021/01/18 03:02:13;;;;;;;45.67;20.38;;;4.20;99.90;;;;;;5094861;28;20016;-74
2021/01/18 03:05:05;;;;;;;52.92;21.08;;;4.20;99.90;;;;;;5094201;28;20047;-73
2021/01/18 03:07:44;;;;;;;42.47;19.88;;;4.20;99.90;;;;;;5094489;28;20044;-74
2021/01/18 03:10:18;;;;;;;53.90;21.90;;;4.20;99.90;;;;;;5094458;28;20019;-73
2021/01/18 03:12:51;;;;;;;48.88;21.48;;;4.20;99.90;;;;;;5094664;28;20024;-74
2021/01/18 03:15:20;;;;;;;56.78;25.08;;;4.10;99.90;;;;;;5094997;28;20031;-74
2021/01/18 03:17:46;;;;;;;58.63;25.25;;;4.20;99.90;;;;;;5093036;28;20077;-74
2021/01/18 03:20:13;;;;;;;63.30;25.17;;;4.20;99.90;;;;;;5094543;28;20031;-74
2021/01/18 03:22:39;;;;;;;55.70;25.08;;;4.20;99.90;;;;;;5094537;28;20024;-74
2021/01/18 03:25:07;;;;;;;55.40;24.73;;;4.30;99.90;;;;;;5094371;28;20016;-72
2021/01/18 03:27:49;;;;;;;60.05;24.77;;;4.20;99.90;;;;;;5094104;28;20024;-73
2021/01/18 03:30:18;;;;;;;57.45;25.42;;;4.20;99.90;;;;;;5094097;28;20012;-73
2021/01/18 03:32:50;;;;;;;64.05;26.85;;;4.20;99.90;;;;;;5094306;28;20023;-73
2021/01/18 03:35:17;;;;;;;62.88;26.08;;;4.20;99.90;;;;;;5094212;28;20034;-73
2021/01/18 03:37:43;;;;;;;71.95;26.25;;;4.20;99.90;;;;;;5094239;28;20028;-73
2021/01/18 03:40:09;;;;;;;73.15;27.80;;;4.20;99.90;;;;;;5093957;28;20417;-73
2021/01/18 03:42:34;;;;;;;62.88;25.63;;;4.20;99.90;;;;;;5094154;28;20055;-73
2021/01/18 03:45:00;;;;;;;75.40;30.88;;;4.30;99.90;;;;;;5094323;28;20028;-73
2021/01/18 03:47:26;;;;;;;81.55;31.17;;;4.30;99.90;;;;;;5092655;28;20020;-73
2021/01/18 03:49:51;;;;;;;76.65;29.85;;;4.30;99.90;;;;;;5094017;28;20035;-73
2021/01/18 03:52:17;;;;;;;69.95;28.25;;;4.30;99.90;;;;;;5093119;28;20525;-73
2021/01/18 03:54:42;;;;;;;69.43;30.30;;;4.20;99.90;;;;;;5094247;28;20080;-73
2021/01/18 03:57:08;;;;;;;77.05;29.45;;;4.20;99.90;;;;;;5094185;28;20488;-73
2021/01/18 03:59:33;;;;;;;86.28;30.88;;;4.20;99.90;;;;;;5093043;28;20024;-73
2021/01/18 04:01:59;;;;;;;71.80;29.30;;;4.20;99.90;;;;;;5075509;28;20016;-73
2021/01/18 04:04:24;;;;;;;78.30;32.00;;;4.20;99.90;;;;;;5093718;28;20052;-74
2021/01/18 04:06:50;;;;;;;90.55;32.33;;;4.20;99.90;;;;;;5094091;28;20023;-73
2021/01/18 04:09:15;;;;;;;81.22;32.38;;;4.20;99.90;;;;;;5094074;28;20024;-73
2021/01/18 04:11:41;;;;;;;87.38;31.95;;;4.20;99.90;;;;;;5094067;28;20103;-73
2021/01/18 04:14:06;;;;;;;78.95;32.45;;;4.30;99.90;;;;;;5093754;28;20021;-73
2021/01/18 04:16:39;;;;;;;80.80;35.05;;;4.30;99.90;;;;;;5092848;28;20028;-73
2021/01/18 04:19:05;;;;;;;94.32;32.20;;;4.30;99.90;;;;;;5094015;28;20051;-73
2021/01/18 04:21:30;;;;;;;84.63;34.67;;;4.30;99.90;;;;;;5093918;28;20071;-73
2021/01/18 04:23:56;;;;;;;81.43;31.77;;;4.40;99.90;;;;;;5093995;28;20028;-73
2021/01/18 04:26:21;;;;;;;71.53;29.73;;;4.40;99.90;;;;;;5093808;28;20465;-73
2021/01/18 04:28:47;;;;;;;76.35;31.73;;;4.30;99.90;;;;;;5093327;28;20024;-73
2021/01/18 04:31:13;;;;;;;71.85;32.47;;;4.30;99.90;;;;;;5093918;28;20027;-73
2021/01/18 04:33:38;;;;;;;83.47;33.85;;;4.30;99.90;;;;;;5093851;28;20020;-73
2021/01/18 04:36:04;;;;;;;85.90;33.70;;;4.30;99.90;;;;;;5093811;28;20035;-73
2021/01/18 04:38:30;;;;;;;90.45;34.63;;;4.30;99.90;;;;;;5093831;28;20024;-73
2021/01/18 04:40:55;;;;;;;88.15;35.10;;;4.30;99.90;;;;;;5093751;28;20140;-73
2021/01/18 04:43:21;;;;;;;94.88;36.00;;;4.30;99.90;;;;;;5093198;28;20040;-73
2021/01/18 04:45:49;;;;;;;92.78;36.63;;;4.20;99.90;;;;;;5092214;28;20507;-73
2021/01/18 04:48:15;;;;;;;77.63;30.90;;;4.20;99.90;;;;;;5096189;28;20476;-73
2021/01/18 04:50:41;;;;;;;76.32;30.40;;;4.20;99.90;;;;;;5097613;28;20147;-73
2021/01/18 04:53:14;;;;;;;79.82;33.03;;;4.20;99.90;;;;;;5096561;28;20176;-73
2021/01/18 04:58:28;;;;;;;72.90;31.73;;;4.20;99.90;;;;;;5112172;27;20355;-73
2021/01/18 05:00:55;;;;;;;79.00;31.10;;;4.20;99.90;;;;;;5111925;28;20032;-72
2021/01/18 05:03:23;;;;;;;83.32;34.13;;;4.20;99.90;;;;;;5111305;28;20085;-72
2021/01/18 05:09:09;;;;;;;83.32;32.58;;;4.10;99.90;;;;;;5112179;27;20904;-74
2021/01/18 05:11:34;;;;;;;80.63;32.95;;;4.20;99.90;;;;;;5111256;28;20027;-73
2021/01/18 05:14:01;;;;;;;77.53;34.05;;;4.20;99.90;;;;;;5111803;28;20028;-74
2021/01/18 05:16:34;;;;;;;86.72;32.60;;;4.20;99.90;;;;;;5111822;28;20055;-73
2021/01/18 05:19:07;;;;;;;84.30;36.67;;;4.20;99.90;;;;;;5111509;28;20027;-73
2021/01/18 05:21:33;;;;;;;85.68;35.58;;;4.10;99.90;;;;;;5111395;28;20043;-74
2021/01/18 05:23:59;;;;;;;84.00;35.25;;;4.10;99.90;;;;;;5110641;28;20031;-73
2021/01/18 05:26:26;;;;;;;87.88;35.15;;;4.10;99.90;;;;;;5111491;28;20395;-74
2021/01/18 05:28:54;;;;;;;83.43;33.03;;;4.10;99.90;;;;;;5110133;28;20031;-73
2021/01/18 05:34:11;;;;;;;75.38;32.95;;;4.20;99.90;;;;;;5112223;27;20909;-73
2021/01/18 05:36:41;;;;;;;75.82;32.38;;;4.20;99.90;;;;;;5110253;28;20024;-73
2021/01/18 05:39:18;;;;;;;77.28;32.70;;;4.20;99.90;;;;;;5111857;28;20020;-72
2021/01/18 05:41:45;;;;;;;77.18;33.15;;;4.20;99.90;;;;;;5111838;28;20096;-73
2021/01/18 05:44:11;;;;;;;87.22;34.97;;;4.10;99.90;;;;;;5111813;28;20016;-72
2021/01/18 05:46:38;;;;;;;80.70;34.35;;;4.20;99.90;;;;;;5111689;28;20548;-72
2021/01/18 05:49:08;;;;;;;79.88;33.60;;;4.20;99.90;;;;;;5110172;28;20012;-73
2021/01/18 05:51:35;;;;;;;80.82;34.72;;;4.20;99.90;;;;;;5111335;28;20023;-73
2021/01/18 05:54:03;;;;;;;86.78;34.97;;;4.10;99.90;;;;;;5111528;28;20044;-74
2021/01/18 05:56:38;;;;;;;104.20;38.78;;;4.20;99.90;;;;;;5111127;28;20069;-73
2021/01/18 05:59:14;;;;;;;91.05;36.10;;;4.10;99.90;;;;;;5111208;28;20104;-73
2021/01/18 06:01:41;;;;;;;105.80;41.58;;;4.10;99.90;;;;;;5111408;28;20473;-73
2021/01/18 06:04:12;;;;;;;94.78;39.92;;;4.20;99.90;;;;;;5110810;28;20115;-74
2021/01/18 06:06:38;;;;;;;97.60;41.03;;;4.20;99.90;;;;;;5111270;28;20012;-73
2021/01/18 06:09:04;;;;;;;94.95;40.45;;;4.20;99.90;;;;;;5110981;28;20020;-74
2021/01/18 06:11:30;;;;;;;107.20;41.50;;;4.20;99.90;;;;;;5111188;28;20020;-74
2021/01/18 06:14:05;;;;;;;111.10;43.70;;;4.20;99.90;;;;;;5111092;28;20032;-72
2021/01/18 06:16:32;;;;;;;104.50;42.58;;;4.30;99.90;;;;;;5110852;28;20475;-74
2021/01/18 06:19:04;;;;;;;96.95;43.40;;;4.20;99.90;;;;;;5111031;28;20103;-74
2021/01/18 06:21:39;;;;;;;116.07;45.45;;;4.20;99.90;;;;;;5110985;28;20031;-73
2021/01/18 06:24:26;;;;;;;109.88;43.42;;;4.20;99.90;;;;;;5110701;28;20027;-73
2021/01/18 06:26:52;;;;;;;112.15;44.33;;;4.20;99.90;;;;;;5109562;28;20111;-73
2021/01/18 06:29:36;;;;;;;112.93;44.97;;;4.20;99.90;;;;;;5109824;28;20427;-73
2021/01/18 06:32:03;;;;;;;115.57;45.00;;;4.30;99.90;;;;;;5109321;28;20039;-74
2021/01/18 06:34:29;;;;;;;110.40;46.75;;;4.20;99.90;;;;;;5109602;28;20040;-73
2021/01/18 06:36:56;;;;;;;108.38;47.60;;;4.30;99.90;;;;;;5110419;28;20526;-73
2021/01/18 06:39:27;;;;;;;104.40;45.20;;;4.30;99.90;;;;;;5110695;28;20047;-73
2021/01/18 06:41:57;;;;;;;117.82;47.60;;;4.30;99.90;;;;;;5110673;28;20020;-73
2021/01/18 06:44:40;;;;;;;117.75;46.85;;;4.30;99.90;;;;;;5102984;28;20350;-73
2021/01/18 06:47:27;;;;;;;117.45;46.63;;;4.30;99.90;;;;;;5096457;28;20383;-73
2021/01/18 06:49:55;;;;;;;120.55;49.42;;;4.40;99.90;;;;;;5078174;28;20115;-73
2021/01/18 06:52:24;;;;;;;122.53;49.75;;;4.40;99.90;;;;;;5096634;28;20028;-73
2021/01/18 06:54:58;;;;;;;123.60;52.63;;;4.30;99.90;;;;;;5096854;28;20432;-73
2021/01/18 06:57:51;;;;;;;117.53;46.30;;;4.40;99.90;;;;;;5095838;28;20024;-73
2021/01/18 07:00:18;;;;;;;120.25;50.78;;;4.40;99.90;;;;;;5094783;28;20024;-74
2021/01/18 07:03:01;;;;;;;126.40;50.45;;;4.50;99.90;;;;;;5085752;28;20032;-73
2021/01/18 07:05:47;;;;;;;109.10;48.97;;;4.50;99.90;;;;;;5090314;28;20477;-73
2021/01/18 07:08:17;;;;;;;115.43;47.22;;;4.50;99.90;;;;;;5096405;28;20050;-73
2021/01/18 07:10:47;;;;;;;117.95;50.53;;;4.50;99.90;;;;;;5077589;28;20024;-73
2021/01/18 07:13:14;;;;;;;116.63;51.33;;;4.40;99.90;;;;;;5076316;28;20037;-73
2021/01/18 07:15:41;;;;;;;115.68;50.03;;;4.40;99.90;;;;;;5095518;28;20032;-71
2021/01/18 07:18:10;;;;;;;130.93;53.78;;;4.40;99.90;;;;;;5079376;28;20377;-71
2021/01/18 07:20:40;;;;;;;116.78;50.75;;;4.50;99.90;;;;;;5087437;28;20039;-71
2021/01/18 07:25:50;;;;;;;112.30;48.25;;;4.50;99.90;;;;;;5151290;27;20349;-70
2021/01/18 07:28:19;;;;;;;123.38;52.10;;;4.50;99.90;;;;;;5131343;28;20062;-70
2021/01/18 07:30:46;;;;;;;116.68;51.63;;;4.60;99.90;;;;;;5132182;28;20035;-71
2021/01/18 07:33:13;;;;;;;121.00;51.15;;;4.50;99.90;;;;;;5131494;28;20034;-70
2021/01/18 07:35:41;;;;;;;128.25;53.33;;;4.60;99.90;;;;;;5131654;28;20023;-70
2021/01/18 07:38:18;;;;;;;118.63;49.53;;;4.60;99.90;;;;;;5131216;28;20031;-72
2021/01/18 07:41:09;;;;;;;125.47;52.10;;;4.70;99.90;;;;;;5130368;28;20056;-72
2021/01/18 07:43:37;;;;;;;122.70;50.67;;;4.70;99.90;;;;;;5119384;28;20030;-72
2021/01/18 07:49:25;;;;;;;127.40;51.42;;;4.60;99.90;;;;;;5090490;28;20340;-72
2021/01/18 07:52:12;;;;;;;127.70;54.53;;;4.70;99.90;;;;;;5087666;28;20031;-72
2021/01/18 07:54:37;;;;;;;114.22;52.13;;;4.70;99.90;;;;;;5081683;28;20116;-72
2021/01/18 07:57:25;;;;;;;126.68;50.63;;;4.60;99.90;;;;;;5089526;28;20387;-72
2021/01/18 08:00:11;;;;;;;134.88;52.20;;;4.70;99.90;;;;;;5098001;28;20019;-72
2021/01/18 08:02:36;;;;;;;113.95;50.17;;;4.70;99.90;;;;;;5091512;28;20589;-71
2021/01/18 08:05:22;;;;;;;120.13;50.05;;;4.70;99.90;;;;;;5090284;28;20052;-71
2021/01/18 08:08:12;;;;;;;135.55;54.65;;;4.70;99.90;;;;;;5089868;28;20035;-72
2021/01/18 08:13:48;;;;;;;121.13;50.20;;;4.70;99.90;;;;;;5110977;27;20351;-72
2021/01/18 08:19:07;;;;;;;102.88;48.25;;;4.80;99.90;;;;;;5069031;28;20842;-71
2021/01/18 08:24:14;;;;;;;125.57;61.92;;;4.80;99.90;;;;;;5108829;27;20393;-71
2021/01/18 08:27:08;;;;;;;109.13;48.03;;;4.80;99.90;;;;;;5104526;28;20445;-70
2021/01/18 08:32:43;;;;;;;103.10;43.97;;;4.90;99.90;;;;;;5062549;28;20419;-69
2021/01/18 08:35:29;;;;;;;97.80;42.55;;;4.90;99.90;;;;;;5061465;28;20043;-69
2021/01/18 08:38:00;;;;;;;96.35;40.08;;;4.80;99.90;;;;;;5061703;28;20040;-68
2021/01/18 08:40:45;;;;;;;94.28;42.30;;;4.90;99.90;;;;;;5062673;28;20024;-70
2021/01/18 08:43:12;;;;;;;92.32;41.50;;;4.90;99.90;;;;;;5060370;28;20020;-72
2021/01/18 08:45:41;;;;;;;97.80;40.88;;;4.80;99.90;;;;;;5062114;28;20090;-71
2021/01/18 08:48:09;;;;;;;88.97;41.65;;;4.80;99.90;;;;;;5063099;28;20027;-71
2021/01/18 08:50:40;;;;;;;101.47;40.53;;;4.80;99.90;;;;;;5063171;28;20033;-71
2021/01/18 08:56:06;;;;;;;98.30;40.17;;;4.90;99.90;;;;;;5143459;27;20339;-70
2021/01/18 08:58:35;;;;;;;86.80;37.35;;;4.80;99.90;;;;;;5144292;27;20099;-69
2021/01/18 09:01:01;;;;;;;79.25;34.33;;;4.90;99.90;;;;;;5143539;27;20030;-70
2021/01/18 09:03:27;;;;;;;99.05;39.08;;;4.90;99.90;;;;;;5142622;27;20086;-70
2021/01/18 09:05:56;;;;;;;90.85;36.05;;;4.90;99.90;;;;;;5140949;27;20030;-70
2021/01/18 09:08:23;;;;;;;97.35;41.13;;;4.90;99.90;;;;;;5125551;27;20232;-71
2021/01/18 09:11:06;;;;;;;95.45;42.67;;;4.90;99.90;;;;;;5143094;27;20023;-70
2021/01/18 09:13:34;;;;;;;101.40;42.15;;;4.80;99.90;;;;;;5125307;27;20035;-69
2021/01/18 09:16:03;;;;;;;105.40;44.88;;;4.90;99.90;;;;;;5143083;27;20035;-70
2021/01/18 09:18:29;;;;;;;97.03;42.90;;;4.90;99.90;;;;;;5143743;27;20031;-70
2021/01/18 09:20:56;;;;;;;99.10;40.50;;;4.90;99.90;;;;;;5143962;27;20034;-70
2021/01/18 09:23:25;;;;;;;96.53;40.45;;;4.80;99.90;;;;;;5143494;27;20030;-72
2021/01/18 09:26:11;;;;;;;99.20;42.80;;;4.90;99.90;;;;;;5142432;27;20030;-71
2021/01/18 09:28:37;;;;;;;94.35;39.40;;;4.90;99.90;;;;;;5143749;27;20531;-71
2021/01/18 09:31:18;;;;;;;92.95;42.50;;;4.90;99.90;;;;;;5144839;27;20415;-71
2021/01/18 09:33:44;;;;;;;102.20;43.33;;;4.90;99.90;;;;;;5142993;27;20068;-72
2021/01/18 09:36:13;;;;;;;84.43;34.63;;;4.90;99.90;;;;;;5143425;27;20034;-71
2021/01/18 09:38:39;;;;;;;86.32;38.30;;;4.90;99.90;;;;;;5144222;27;20030;-71
2021/01/18 09:41:05;;;;;;;81.88;36.30;;;4.90;99.90;;;;;;5125503;27;20134;-71
2021/01/18 09:43:33;;;;;;;77.50;34.20;;;5.00;99.90;;;;;;5142342;27;20234;-72
2021/01/18 09:45:58;;;;;;;84.35;36.28;;;5.10;99.90;;;;;;5143806;27;20043;-71
2021/01/18 09:48:25;;;;;;;86.18;34.35;;;5.20;99.90;;;;;;5144911;27;20386;-72
2021/01/18 09:51:00;;;;;;;79.18;33.97;;;5.30;99.90;;;;;;5142298;27;20027;-72
2021/01/18 09:53:26;;;;;;;74.03;34.67;;;5.40;99.90;;;;;;5144724;27;20678;-72
2021/01/18 09:55:53;;;;;;;69.45;32.40;;;5.40;99.90;;;;;;5141997;27;20065;-72
2021/01/18 09:58:24;;;;;;;76.18;31.65;;;5.40;99.90;;;;;;5144047;27;20027;-72
2021/01/18 10:00:50;;;;;;;76.68;33.33;;;5.60;99.90;;;;;;5123270;27;20069;-72
2021/01/18 10:03:34;;;;;;;62.72;27.92;;;5.90;99.90;;;;;;5124403;27;20146;-72
2021/01/18 10:06:04;;;;;;;64.13;27.98;;;5.90;99.90;;;;;;5137265;27;20070;-72
2021/01/18 10:08:32;;;;;;;64.18;29.02;;;5.80;99.90;;;;;;5108333;27;20075;-71
2021/01/18 10:10:59;;;;;;;57.15;28.75;;;5.70;99.90;;;;;;5128707;27;20728;-72
2021/01/18 10:13:25;;;;;;;59.95;28.83;;;5.80;99.90;;;;;;5129812;27;20023;-71
2021/01/18 10:15:52;;;;;;;57.17;25.38;;;5.80;99.90;;;;;;5127684;27;20809;-71
2021/01/18 10:18:37;;;;;;;83.07;32.15;;;5.70;99.90;;;;;;5111586;27;20031;-72
2021/01/18 10:21:03;;;;;;;71.72;29.08;;;5.60;99.90;;;;;;5129956;27;20027;-71
2021/01/18 10:23:31;;;;;;;73.15;29.35;;;5.50;99.90;;;;;;5129340;27;20032;-72
2021/01/18 10:26:19;;;;;;;67.65;29.50;;;5.50;99.90;;;;;;5127804;27;20202;-72
2021/01/18 10:28:56;;;;;;;76.25;30.35;;;5.50;99.90;;;;;;5111598;27;20027;-71
2021/01/18 10:31:24;;;;;;;78.82;29.83;;;5.40;99.90;;;;;;5127892;27;20031;-72
2021/01/18 10:34:14;;;;;;;66.95;30.33;;;5.40;99.90;;;;;;5128844;27;20080;-71
2021/01/18 10:36:44;;;;;;;66.18;29.75;;;5.50;99.90;;;;;;5127651;27;20023;-71
2021/01/18 10:39:39;;;;;;;64.65;28.35;;;5.50;99.90;;;;;;5109556;27;20028;-71
2021/01/18 10:42:12;;;;;;;64.93;28.02;;;5.60;99.90;;;;;;5128617;27;20027;-72
2021/01/18 10:44:47;;;;;;;66.20;26.30;;;5.60;99.90;;;;;;5127723;27;20027;-72
2021/01/18 10:47:13;;;;;;;68.57;29.58;;;5.60;99.90;;;;;;5128306;27;20020;-71
2021/01/18 10:49:39;;;;;;;60.60;27.95;;;5.70;99.90;;;;;;5111103;27;20497;-72
2021/01/18 10:52:08;;;;;;;65.63;27.90;;;5.80;99.90;;;;;;5128962;27;20042;-72
2021/01/18 10:54:34;;;;;;;69.32;28.95;;;5.70;99.90;;;;;;5129972;27;20050;-71
2021/01/18 10:57:01;;;;;;;66.80;29.65;;;5.70;99.90;;;;;;5132167;27;20053;-71
2021/01/18 10:59:27;;;;;;;62.45;28.67;;;5.70;99.90;;;;;;5117367;27;20201;-70
2021/01/18 11:04:45;;;;;;;59.95;29.23;;;5.70;99.90;;;;;;5090319;27;20405;-71
2021/01/18 11:07:11;;;;;;;65.30;28.70;;;5.60;99.90;;;;;;5090093;28;20092;-71
2021/01/18 11:09:37;;;;;;;55.38;27.27;;;5.60;99.90;;;;;;5090540;28;20029;-71
2021/01/18 11:12:04;;;;;;;58.60;27.15;;;5.60;99.90;;;;;;5072324;28;20496;-71
2021/01/18 11:14:31;;;;;;;59.22;27.80;;;5.70;99.90;;;;;;5089816;28;20027;-71
2021/01/18 11:19:40;;;;;;;60.00;26.35;;;5.70;99.90;;;;;;5107234;27;20712;-70
2021/01/18 11:22:05;;;;;;;57.00;22.77;;;5.80;99.90;;;;;;5089093;28;20025;-71
2021/01/18 11:24:33;;;;;;;62.13;27.25;;;5.80;99.90;;;;;;5089909;28;20024;-71
2021/01/18 11:26:58;;;;;;;67.80;26.58;;;5.80;99.90;;;;;;5089078;28;20397;-71
2021/01/18 11:29:25;;;;;;;59.47;25.00;;;5.80;99.90;;;;;;5090288;28;20026;-71
2021/01/18 11:31:50;;;;;;;55.00;25.52;;;5.80;99.90;;;;;;5090516;28;20369;-71
2021/01/18 11:34:16;;;;;;;60.53;26.70;;;5.70;99.90;;;;;;5089889;28;20023;-71
2021/01/18 11:36:42;;;;;;;51.40;24.27;;;5.70;99.90;;;;;;5089874;28;20494;-70
2021/01/18 11:39:09;;;;;;;38.72;18.25;;;5.70;99.90;;;;;;5089862;28;20073;-71
2021/01/18 11:41:35;;;;;;;54.30;24.45;;;5.80;99.90;;;;;;5090094;28;20039;-71
2021/01/18 11:44:03;;;;;;;50.75;22.60;;;5.80;99.90;;;;;;5089855;28;20009;-72
2021/01/18 11:46:28;;;;;;;50.33;20.90;;;5.90;99.90;;;;;;5089803;28;20064;-71
2021/01/18 11:48:54;;;;;;;44.50;21.90;;;6.00;99.90;;;;;;5096773;28;20120;-71
2021/01/18 11:51:19;;;;;;;56.40;21.35;;;6.00;99.90;;;;;;5087488;28;20133;-71
2021/01/18 11:53:47;;;;;;;48.67;21.55;;;6.00;99.90;;;;;;5089397;28;20033;-71
2021/01/18 11:56:13;;;;;;;52.58;20.63;;;6.00;99.90;;;;;;5089367;28;20020;-72
2021/01/18 11:58:39;;;;;;;36.95;18.42;;;6.10;99.90;;;;;;5090015;28;20043;-71
2021/01/18 12:01:04;;;;;;;42.25;18.77;;;6.10;99.90;;;;;;5089713;28;20470;-71
2021/01/18 12:03:30;;;;;;;39.20;17.33;;;6.20;99.90;;;;;;5088181;28;20024;-71
2021/01/18 12:05:55;;;;;;;42.88;19.48;;;6.30;99.90;;;;;;5089774;28;20103;-71
2021/01/18 12:08:21;;;;;;;42.60;20.08;;;6.20;99.90;;;;;;5089435;28;20478;-72
2021/01/18 12:10:46;;;;;;;38.30;18.30;;;6.20;99.90;;;;;;5089457;28;20084;-71
2021/01/18 12:13:12;;;;;;;38.70;17.42;;;6.10;99.90;;;;;;5089671;28;20085;-71
2021/01/18 12:15:37;;;;;;;31.95;17.35;;;6.10;99.90;;;;;;5088842;28;20016;-71
2021/01/18 12:18:04;;;;;;;40.90;17.98;;;6.20;99.90;;;;;;5087859;28;20174;-72
2021/01/18 12:20:30;;;;;;;37.13;17.48;;;6.10;99.90;;;;;;5089044;28;20016;-71
2021/01/18 12:22:57;;;;;;;38.17;17.05;;;6.10;99.90;;;;;;5089156;28;20016;-71
2021/01/18 12:25:25;;;;;;;43.83;17.85;;;6.20;99.90;;;;;;5087822;28;20052;-72
2021/01/18 12:27:52;;;;;;;38.63;18.13;;;6.20;99.90;;;;;;5088071;28;20024;-72
2021/01/18 12:30:18;;;;;;;45.50;18.55;;;6.20;99.90;;;;;;5079189;28;20045;-71
2021/01/18 12:32:44;;;;;;;33.75;17.65;;;6.10;99.90;;;;;;5076001;28;20028;-71
2021/01/18 12:35:10;;;;;;;36.55;17.85;;;6.00;99.90;;;;;;5075457;28;20029;-72
2021/01/18 12:37:36;;;;;;;51.40;20.95;;;5.90;99.90;;;;;;5074752;28;20449;-73
2021/01/18 12:40:03;;;;;;;39.90;17.83;;;5.80;99.90;;;;;;5075194;28;20021;-73
2021/01/18 12:42:29;;;;;;;37.83;16.38;;;5.90;99.90;;;;;;5075261;28;20517;-71
2021/01/18 12:44:55;;;;;;;44.28;17.52;;;5.80;99.90;;;;;;5074912;28;20037;-71
2021/01/18 12:47:21;;;;;;;39.13;17.20;;;5.90;99.90;;;;;;5075692;28;20048;-72
2021/01/18 12:49:46;;;;;;;42.20;16.27;;;5.90;99.90;;;;;;5095369;28;20080;-71
2021/01/18 12:52:12;;;;;;;41.47;15.80;;;5.80;99.90;;;;;;5093545;28;20085;-71
2021/01/18 12:54:37;;;;;;;32.58;16.42;;;5.90;99.90;;;;;;5074749;28;20028;-71
2021/01/18 12:57:03;;;;;;;39.13;15.80;;;5.90;99.90;;;;;;5075182;28;20028;-71
2021/01/18 12:59:29;;;;;;;34.80;15.85;;;5.90;99.90;;;;;;5074456;28;20044;-70
2021/01/18 13:01:55;;;;;;;44.85;15.57;;;6.00;99.90;;;;;;5075337;28;20025;-72
2021/01/18 13:04:20;;;;;;;44.25;16.10;;;5.90;99.90;;;;;;5074687;28;20090;-71
2021/01/18 13:06:46;;;;;;;37.65;15.60;;;5.90;99.90;;;;;;5074501;28;20066;-71
2021/01/18 13:09:14;;;;;;;31.58;13.43;;;5.90;99.90;;;;;;5074960;28;20444;-71
2021/01/18 13:11:43;;;;;;;28.52;12.23;;;5.90;99.90;;;;;;5074831;28;20126;-71
2021/01/18 13:14:08;;;;;;;28.15;11.05;;;6.00;99.90;;;;;;5074576;28;20028;-71
2021/01/18 13:16:34;;;;;;;32.03;11.50;;;5.90;99.90;;;;;;5074637;28;20032;-71
2021/01/18 13:19:00;;;;;;;27.63;11.88;;;5.90;99.90;;;;;;5074070;28;20095;-71
2021/01/18 13:21:25;;;;;;;30.02;11.93;;;6.00;99.90;;;;;;5074507;28;20028;-72
2021/01/18 13:23:51;;;;;;;27.02;11.45;;;6.00;99.90;;;;;;5074189;28;20024;-72